createdAt,value
2019-03-04T00:00:16.132Z,13.30
2019-03-04T00:02:47.022Z,12.30
2019-03-04T00:05:18.421Z,13.33
2019-03-04T00:07:47.158Z,9.17
2019-03-04T00:10:15.855Z,8.23
2019-03-04T00:12:44.588Z,7.17
2019-03-04T00:15:13.316Z,8.00
2019-03-04T00:17:42.131Z,10.97
2019-03-04T00:20:10.882Z,8.97
2019-03-04T00:22:39.715Z,18.50
2019-03-04T00:25:08.508Z,9.10
2019-03-04T00:27:37.222Z,6.10
2019-03-04T00:30:09.112Z,7.40
2019-03-04T00:32:37.846Z,8.77
2019-03-04T00:35:06.632Z,11.27
2019-03-04T00:37:35.427Z,17.10
2019-03-04T00:40:04.484Z,10.03
2019-03-04T00:42:33.300Z,11.97
2019-03-04T00:45:02.071Z,10.90
2019-03-04T00:47:30.880Z,14.87
2019-03-04T00:50:01.929Z,6.13
2019-03-04T00:52:30.677Z,9.20
2019-03-04T00:54:59.602Z,11.07
2019-03-04T00:57:28.396Z,10.90
2019-03-04T00:59:57.196Z,5.50
2019-03-04T01:02:25.908Z,14.07
2019-03-04T01:04:54.749Z,15.63
2019-03-04T01:07:23.458Z,7.47
2019-03-04T01:09:52.170Z,9.93
2019-03-04T01:12:20.965Z,8.07
2019-03-04T01:14:49.777Z,9.57
2019-03-04T01:17:18.486Z,8.53
2019-03-04T01:19:47.210Z,7.37
2019-03-04T01:22:15.987Z,9.10
2019-03-04T01:24:44.726Z,8.57
2019-03-04T01:27:13.450Z,12.90
2019-03-04T01:29:42.256Z,6.17
2019-03-04T01:32:11.061Z,9.50
2019-03-04T01:34:39.760Z,10.80
2019-03-04T01:37:08.484Z,9.37
2019-03-04T01:39:37.212Z,14.93
2019-03-04T01:42:05.999Z,6.17
2019-03-04T01:44:37.744Z,7.47
2019-03-04T01:47:06.518Z,8.83
2019-03-04T01:49:35.275Z,7.77
2019-03-04T01:52:04.007Z,11.70
2019-03-04T01:54:32.781Z,6.13
2019-03-04T01:57:01.716Z,8.97
2019-03-04T01:59:30.492Z,7.27
2019-03-04T02:01:59.356Z,10.87
2019-03-04T02:04:28.187Z,6.63
2019-03-04T02:06:56.907Z,13.73
2019-03-04T02:09:26.099Z,7.83
2019-03-04T02:11:54.799Z,8.43
2019-03-04T02:14:23.584Z,6.67
2019-03-04T02:16:52.366Z,10.07
2019-03-04T02:19:21.109Z,6.50
2019-03-04T02:21:49.905Z,8.87
2019-03-04T02:24:22.909Z,13.83
2019-03-04T02:26:52.057Z,7.83
2019-03-04T02:29:20.819Z,5.43
2019-03-04T02:31:49.623Z,6.87
2019-03-04T02:34:18.410Z,12.13
2019-03-04T02:36:47.194Z,10.50
2019-03-04T02:39:15.930Z,11.33
2019-03-04T02:41:44.717Z,10.60
2019-03-04T02:44:13.511Z,7.10
2019-03-04T02:46:42.340Z,7.47
2019-03-04T02:49:11.116Z,4.80
2019-03-04T02:51:39.907Z,9.57
2019-03-04T02:54:08.700Z,5.93
2019-03-04T02:56:37.448Z,6.97
2019-03-04T02:59:06.222Z,7.40
2019-03-04T03:01:35.074Z,4.60
2019-03-04T03:04:03.834Z,5.33
2019-03-04T03:06:32.704Z,6.43
2019-03-04T03:09:01.473Z,8.60
2019-03-04T03:11:30.206Z,5.23
2019-03-04T03:13:59.026Z,7.30
2019-03-04T03:16:28.142Z,5.83
2019-03-04T03:18:56.929Z,11.63
2019-03-04T03:21:25.764Z,5.90
2019-03-04T03:23:54.572Z,5.50
2019-03-04T03:26:23.412Z,5.87
2019-03-04T03:28:52.215Z,5.47
2019-03-04T03:31:21.107Z,9.70
2019-03-04T03:33:50.009Z,11.57
2019-03-04T03:36:18.714Z,5.33
2019-03-04T03:38:50.577Z,5.07
2019-03-04T03:41:19.372Z,6.10
2019-03-04T03:43:48.171Z,5.37
2019-03-04T03:46:16.973Z,6.17
2019-03-04T03:48:45.751Z,6.63
2019-03-04T03:51:14.543Z,3.13
2019-03-04T03:53:43.257Z,3.57
2019-03-04T03:56:12.013Z,8.03
2019-03-04T03:58:40.705Z,5.50
2019-03-04T04:01:09.514Z,5.90
2019-03-04T04:03:38.310Z,5.37
2019-03-04T04:06:07.141Z,4.70
2019-03-04T04:08:35.973Z,2.83
2019-03-04T04:11:04.764Z,4.37
2019-03-04T04:13:33.561Z,4.80
2019-03-04T04:16:02.369Z,3.57
2019-03-04T04:18:31.160Z,5.03
2019-03-04T04:20:59.954Z,11.57
2019-03-04T04:23:28.672Z,3.17
2019-03-04T04:25:57.484Z,2.03
2019-03-04T04:28:26.201Z,3.97
2019-03-04T04:30:54.911Z,5.83
2019-03-04T04:33:23.680Z,3.47
2019-03-04T04:35:52.455Z,4.97
2019-03-04T04:38:21.235Z,4.30
2019-03-04T04:40:49.951Z,5.97
2019-03-04T04:43:18.805Z,8.13
2019-03-04T04:45:47.731Z,3.10
2019-03-04T04:48:16.442Z,3.90
2019-03-04T04:50:45.140Z,3.20
2019-03-04T04:53:13.865Z,8.17
2019-03-04T04:55:42.637Z,3.93
2019-03-04T04:58:11.449Z,3.83
2019-03-04T05:00:40.147Z,7.00
2019-03-04T05:03:08.881Z,3.83
2019-03-04T05:05:37.597Z,2.27
2019-03-04T05:08:06.339Z,5.70
2019-03-04T05:10:35.174Z,5.90
2019-03-04T05:13:03.966Z,3.10
2019-03-04T05:15:32.775Z,5.47
2019-03-04T05:18:01.506Z,4.63
2019-03-04T05:20:30.269Z,5.67
2019-03-04T05:22:59.013Z,3.13
2019-03-04T05:25:27.715Z,2.43
2019-03-04T05:27:56.441Z,3.73
2019-03-04T05:30:25.202Z,3.70
2019-03-04T05:32:53.910Z,3.60
2019-03-04T05:35:22.711Z,2.40
2019-03-04T05:37:51.499Z,6.80
2019-03-04T05:40:20.215Z,5.33
2019-03-04T05:42:48.964Z,6.70
2019-03-04T05:45:17.750Z,5.53
2019-03-04T05:47:46.476Z,5.50
2019-03-04T05:50:15.761Z,3.77
2019-03-04T05:52:44.508Z,3.97
2019-03-04T05:55:13.808Z,5.50
2019-03-04T05:57:42.574Z,6.63
2019-03-04T06:00:13.076Z,2.23
2019-03-04T06:02:41.884Z,4.83
2019-03-04T06:05:10.720Z,7.03
2019-03-04T06:07:45.385Z,9.33
2019-03-04T06:10:14.447Z,6.03
2019-03-04T06:12:43.436Z,2.63
2019-03-04T06:15:15.807Z,3.17
2019-03-04T06:17:44.515Z,3.80
2019-03-04T06:20:13.930Z,1.87
2019-03-04T06:22:42.724Z,5.87
2019-03-04T06:25:12.623Z,2.47
2019-03-04T06:27:41.461Z,2.67
2019-03-04T06:30:12.238Z,8.60
2019-03-04T06:32:40.991Z,2.60
2019-03-04T06:35:09.925Z,2.87
2019-03-04T06:37:38.722Z,1.40
2019-03-04T06:40:08.491Z,4.67
2019-03-04T06:42:37.253Z,2.20
2019-03-04T06:45:08.126Z,3.97
2019-03-04T06:47:36.912Z,4.10
2019-03-04T06:50:05.840Z,3.17
2019-03-04T06:52:34.617Z,4.13
2019-03-04T06:55:34.919Z,4.13
2019-03-04T06:58:03.682Z,4.10
2019-03-04T07:00:52.528Z,5.93
2019-03-04T07:03:25.501Z,4.40
2019-03-04T07:05:54.330Z,5.60
2019-03-04T07:08:45.331Z,3.60
2019-03-04T07:11:14.176Z,4.43
2019-03-04T07:13:42.881Z,5.30
2019-03-04T07:16:11.614Z,2.27
2019-03-04T07:18:40.351Z,3.10
2019-03-04T07:21:09.076Z,3.47
2019-03-04T07:23:37.837Z,5.53
2019-03-04T07:26:06.593Z,4.20
2019-03-04T07:28:35.561Z,4.43
2019-03-04T07:31:04.290Z,2.13
2019-03-04T07:33:33.040Z,6.40
2019-03-04T07:36:01.776Z,6.90
2019-03-04T07:38:41.876Z,3.27
2019-03-04T07:41:10.606Z,4.57
2019-03-04T07:43:39.429Z,1.30
2019-03-04T07:46:08.205Z,5.70
2019-03-04T07:48:37.010Z,4.23
2019-03-04T07:51:10.811Z,6.13
2019-03-04T07:53:46.394Z,2.73
2019-03-04T07:56:13.074Z,3.80
2019-03-04T07:58:41.884Z,1.60
2019-03-04T08:01:10.716Z,1.80
2019-03-04T08:03:39.430Z,2.27
2019-03-04T08:06:08.276Z,7.33
2019-03-04T08:08:38.596Z,4.43
2019-03-04T08:11:32.745Z,5.43
2019-03-04T08:14:02.106Z,4.10
2019-03-04T08:16:30.880Z,3.60
2019-03-04T08:18:59.695Z,3.40
2019-03-04T08:21:28.483Z,4.73
2019-03-04T08:23:57.281Z,4.37
2019-03-04T08:26:26.020Z,4.73
2019-03-04T08:28:54.751Z,3.57
2019-03-04T08:31:23.492Z,2.63
2019-03-04T08:33:52.223Z,1.67
2019-03-04T08:36:20.945Z,2.63
2019-03-04T08:38:49.756Z,3.73
2019-03-04T08:41:18.585Z,1.47
2019-03-04T08:43:47.377Z,2.50
2019-03-04T08:46:16.159Z,3.30
2019-03-04T08:48:44.856Z,2.23
2019-03-04T08:51:13.590Z,5.60
2019-03-04T08:53:42.379Z,2.90
2019-03-04T08:56:13.300Z,3.83
2019-03-04T08:58:42.099Z,3.60
2019-03-04T09:01:10.796Z,2.00
2019-03-04T09:03:39.586Z,2.63
2019-03-04T09:06:08.337Z,1.73
2019-03-04T09:08:37.207Z,0.40
2019-03-04T09:11:05.993Z,1.33
2019-03-04T09:13:34.706Z,1.70
2019-03-04T09:16:03.507Z,3.00
2019-03-04T09:18:32.300Z,0.93
2019-03-04T09:21:01.127Z,0.37
2019-03-04T09:23:29.848Z,1.67
2019-03-04T09:26:03.824Z,0.97
2019-03-04T09:28:32.571Z,0.57
2019-03-04T09:31:01.359Z,1.47
2019-03-04T09:33:30.149Z,0.10
2019-03-04T09:35:58.933Z,2.03
2019-03-04T09:38:27.663Z,3.40
2019-03-04T09:40:56.496Z,0.30
2019-03-04T09:43:25.376Z,0.43
2019-03-04T09:45:54.170Z,0.87
2019-03-04T09:48:22.885Z,0.70
2019-03-04T09:50:51.644Z,0.70
2019-03-04T09:53:20.421Z,1.73
2019-03-04T09:55:49.215Z,1.23
2019-03-04T09:58:17.976Z,0.33
2019-03-04T10:01:08.858Z,1.80
2019-03-04T10:03:55.333Z,1.60
2019-03-04T10:06:40.923Z,1.50
2019-03-04T10:09:31.862Z,1.40
2019-03-04T10:12:06.885Z,0.23
2019-03-04T10:15:13.110Z,2.87
2019-03-04T10:17:59.704Z,3.53
2019-03-04T10:20:47.604Z,0.93
2019-03-04T10:23:34.414Z,1.40
2019-03-04T10:26:40.617Z,0.83
2019-03-04T10:29:22.744Z,1.10
2019-03-04T10:31:57.475Z,1.47
2019-03-04T10:34:41.406Z,0.83
2019-03-04T10:37:32.119Z,1.23
2019-03-04T10:40:26.168Z,1.43
2019-03-04T10:43:29.118Z,1.43
2019-03-04T10:46:04.230Z,1.10
2019-03-04T10:48:33.048Z,1.90
2019-03-04T10:51:01.758Z,5.00
2019-03-04T10:53:30.502Z,2.00
2019-03-04T10:55:59.295Z,1.00
2019-03-04T10:58:28.001Z,0.43
2019-03-04T11:00:56.755Z,5.20
2019-03-04T11:03:25.475Z,4.80
2019-03-04T11:05:54.226Z,2.60
2019-03-04T11:08:23.014Z,3.03
2019-03-04T11:10:51.748Z,4.37
2019-03-04T11:13:20.573Z,0.73
2019-03-04T11:15:49.324Z,1.60
2019-03-04T11:18:18.153Z,5.20
2019-03-04T11:20:46.881Z,0.87
2019-03-04T11:23:15.793Z,1.40
2019-03-04T11:25:44.518Z,3.20
2019-03-04T11:28:13.427Z,2.00
2019-03-04T11:30:42.276Z,1.50
2019-03-04T11:33:10.992Z,1.90
2019-03-04T11:35:39.950Z,1.30
2019-03-04T11:38:27.827Z,0.93
2019-03-04T11:40:56.658Z,0.30
2019-03-04T11:43:25.460Z,2.00
2019-03-04T11:45:54.250Z,1.70
2019-03-04T11:48:22.976Z,0.83
2019-03-04T11:50:51.699Z,2.83
2019-03-04T11:53:20.466Z,1.70
2019-03-04T11:55:49.201Z,3.67
2019-03-04T11:58:17.953Z,0.40
2019-03-04T12:00:52.865Z,0.30
2019-03-04T12:03:21.732Z,0.60
2019-03-04T12:05:50.547Z,0.30
2019-03-04T12:08:19.373Z,0.40
2019-03-04T12:10:48.164Z,2.03
2019-03-04T12:13:16.995Z,0.90
2019-03-04T12:15:45.803Z,1.20
2019-03-04T12:18:17.640Z,0.37
2019-03-04T12:20:46.758Z,0.50
2019-03-04T12:23:15.484Z,1.20
2019-03-04T12:25:44.182Z,1.53
2019-03-04T12:28:12.993Z,1.67
2019-03-04T12:30:41.808Z,0.30
2019-03-04T12:33:11.021Z,1.83
2019-03-04T12:35:39.838Z,0.37
2019-03-04T12:38:08.575Z,0.40
2019-03-04T12:40:37.402Z,0.27
2019-03-04T12:43:06.202Z,0.47
2019-03-04T12:45:34.997Z,1.43
2019-03-04T12:48:03.727Z,1.10
2019-03-04T12:50:32.485Z,2.10
2019-03-04T12:53:01.333Z,0.30
2019-03-04T12:55:30.131Z,0.30
2019-03-04T12:57:58.947Z,0.37
2019-03-04T13:00:27.787Z,0.30
2019-03-04T13:02:59.625Z,0.60
2019-03-04T13:05:28.368Z,0.43
2019-03-04T13:07:57.080Z,0.93
2019-03-04T13:10:25.815Z,0.30
2019-03-04T13:12:54.614Z,0.63
2019-03-04T13:15:23.732Z,0.87
2019-03-04T13:17:52.525Z,1.27
2019-03-04T13:20:21.537Z,0.40
2019-03-04T13:22:50.315Z,0.60
2019-03-04T13:25:19.145Z,2.00
2019-03-04T13:27:47.944Z,0.80
2019-03-04T13:30:17.951Z,2.17
2019-03-04T13:32:46.782Z,0.50
2019-03-04T13:35:24.044Z,0.47
2019-03-04T13:37:47.044Z,1.70
2019-03-04T13:40:15.845Z,0.37
2019-03-04T13:42:44.693Z,1.03
2019-03-04T13:45:14.151Z,0.43
2019-03-04T13:47:43.004Z,0.57
2019-03-04T13:50:13.462Z,0.30
2019-03-04T13:52:42.245Z,0.60
2019-03-04T13:55:11.499Z,0.40
2019-03-04T13:57:40.612Z,2.23
2019-03-04T14:00:12.006Z,2.53
2019-03-04T14:02:40.980Z,10.13
2019-03-04T14:05:10.284Z,0.83
2019-03-04T14:07:39.527Z,0.60
2019-03-04T14:10:09.079Z,2.63
2019-03-04T14:12:37.895Z,0.67
2019-03-04T14:15:08.134Z,0.60
2019-03-04T14:17:36.879Z,6.70
2019-03-04T14:20:05.899Z,0.50
2019-03-04T14:22:40.347Z,1.70
2019-03-04T14:25:05.703Z,3.70
2019-03-04T14:27:34.471Z,0.60
2019-03-04T14:30:03.207Z,1.37
2019-03-04T14:32:32.063Z,1.90
2019-03-04T14:35:00.893Z,0.90
2019-03-04T14:37:29.698Z,0.67
2019-03-04T14:39:58.521Z,2.30
2019-03-04T14:42:27.316Z,2.60
2019-03-04T14:44:56.035Z,0.80
2019-03-04T14:47:24.854Z,0.40
2019-03-04T14:49:53.644Z,1.23
2019-03-04T14:52:22.467Z,2.63
2019-03-04T14:54:51.170Z,3.47
2019-03-04T14:57:19.921Z,1.27
2019-03-04T14:59:48.731Z,2.70
2019-03-04T15:02:17.513Z,5.43
2019-03-04T15:04:46.374Z,1.07
2019-03-04T15:07:15.163Z,3.23
2019-03-04T15:09:49.251Z,4.53
2019-03-04T15:12:14.361Z,1.87
2019-03-04T15:14:43.507Z,3.00
2019-03-04T15:17:20.392Z,4.07
2019-03-04T15:19:49.186Z,1.33
2019-03-04T15:22:17.969Z,2.00
2019-03-04T15:24:46.785Z,1.63
2019-03-04T15:27:15.649Z,4.93
2019-03-04T15:29:44.428Z,2.50
2019-03-04T15:32:13.233Z,5.00
2019-03-04T15:34:41.952Z,4.43
2019-03-04T15:37:10.700Z,2.63
2019-03-04T15:39:39.503Z,3.27
2019-03-04T15:42:08.336Z,2.67
2019-03-04T15:44:37.149Z,0.70
2019-03-04T15:47:05.872Z,5.53
2019-03-04T15:49:35.016Z,9.43
2019-03-04T15:52:03.863Z,1.40
2019-03-04T15:54:32.650Z,4.37
2019-03-04T15:57:02.090Z,2.03
2019-03-04T15:59:30.897Z,1.53
2019-03-04T16:02:03.348Z,2.50
2019-03-04T16:04:32.454Z,1.47
2019-03-04T16:07:01.303Z,8.07
2019-03-04T16:09:30.106Z,2.93
2019-03-04T16:11:58.927Z,7.33
2019-03-04T16:14:27.691Z,4.47
2019-03-04T16:16:56.421Z,2.03
2019-03-04T16:19:25.265Z,3.80
2019-03-04T16:21:54.069Z,7.47
2019-03-04T16:24:22.993Z,2.10
2019-03-04T16:26:51.719Z,2.93
2019-03-04T16:29:20.530Z,10.50
2019-03-04T16:31:49.274Z,1.60
2019-03-04T16:34:18.093Z,2.17
2019-03-04T16:36:47.253Z,2.03
2019-03-04T16:39:18.070Z,4.33
2019-03-04T16:41:46.881Z,3.17
2019-03-04T16:44:15.693Z,1.50
2019-03-04T16:46:44.404Z,4.73
2019-03-04T16:49:13.200Z,2.83
2019-03-04T16:51:42.008Z,5.03
2019-03-04T16:54:10.731Z,2.17
2019-03-04T16:56:39.502Z,2.93
2019-03-04T16:59:08.384Z,3.80
2019-03-04T17:01:37.200Z,7.93
2019-03-04T17:04:06.009Z,1.00
2019-03-04T17:06:34.816Z,4.33
2019-03-04T17:09:05.610Z,3.37
2019-03-04T17:11:34.377Z,3.43
2019-03-04T17:14:03.223Z,2.07
2019-03-04T17:16:32.052Z,1.80
2019-03-04T17:19:00.825Z,3.87
2019-03-04T17:21:29.549Z,5.67
2019-03-04T17:23:58.341Z,6.10
2019-03-04T17:26:27.081Z,2.30
2019-03-04T17:28:55.839Z,5.17
2019-03-04T17:31:25.988Z,7.07
2019-03-04T17:33:54.780Z,3.93
2019-03-04T17:36:23.575Z,4.23
2019-03-04T17:38:52.469Z,8.37
2019-03-04T17:41:21.244Z,1.63
2019-03-04T17:43:50.029Z,9.47
2019-03-04T17:46:18.799Z,4.20
2019-03-04T17:48:47.601Z,10.27
2019-03-04T17:51:16.433Z,6.37
2019-03-04T17:53:45.197Z,7.07
2019-03-04T17:56:14.105Z,6.40
2019-03-04T17:58:42.972Z,8.57
2019-03-04T18:01:11.812Z,10.03
2019-03-04T18:03:40.600Z,7.87
2019-03-04T18:06:09.338Z,3.83
2019-03-04T18:08:39.192Z,3.97
2019-03-04T18:11:07.933Z,6.77
2019-03-04T18:13:36.673Z,9.13
2019-03-04T18:16:05.819Z,10.63
2019-03-04T18:18:34.671Z,4.93
2019-03-04T18:21:03.511Z,13.83
2019-03-04T18:23:32.380Z,10.00
2019-03-04T18:26:12.242Z,7.73
2019-03-04T18:29:06.004Z,8.40
2019-03-04T18:31:50.063Z,9.73
2019-03-04T18:34:41.029Z,15.70
2019-03-04T18:37:16.276Z,9.67
2019-03-04T18:40:15.815Z,7.17
2019-03-04T18:42:54.929Z,3.03
2019-03-04T18:45:41.481Z,5.60
2019-03-04T18:48:23.567Z,12.00
2019-03-04T18:50:52.341Z,15.47
2019-03-04T18:53:21.198Z,13.10
2019-03-04T18:55:52.364Z,9.90
2019-03-04T18:58:21.162Z,7.20
2019-03-04T19:00:50.021Z,7.67
2019-03-04T19:03:18.816Z,8.90
2019-03-04T19:05:50.968Z,9.23
2019-03-04T19:08:19.775Z,8.53
2019-03-04T19:10:49.895Z,9.10
2019-03-04T19:13:18.730Z,9.80
2019-03-04T19:15:50.257Z,7.73
2019-03-04T19:18:19.020Z,10.80
2019-03-04T19:20:47.848Z,14.40
2019-03-04T19:23:16.681Z,11.67
2019-03-04T19:25:45.554Z,11.10
2019-03-04T19:28:15.870Z,9.00
2019-03-04T19:30:44.689Z,9.33
2019-03-04T19:33:20.681Z,11.43
2019-03-04T19:35:49.588Z,10.17
2019-03-04T19:38:18.619Z,15.03
2019-03-04T19:40:48.665Z,15.13
2019-03-04T19:43:32.474Z,12.17
2019-03-04T19:45:48.214Z,1.80
2019-03-04T19:48:17.272Z,14.30
2019-03-04T19:50:47.505Z,18.10
2019-03-04T19:53:18.795Z,3.27
2019-03-04T19:55:47.799Z,8.63
2019-03-04T19:58:16.805Z,12.27
2019-03-04T20:00:45.813Z,10.70
2019-03-04T20:03:14.919Z,8.47
2019-03-04T20:05:43.910Z,6.27
2019-03-04T20:08:13.097Z,8.20
2019-03-04T20:10:42.190Z,14.20
2019-03-04T20:13:11.337Z,8.37
2019-03-04T20:15:40.717Z,4.10
2019-03-04T20:18:10.772Z,12.43
2019-03-04T20:20:40.399Z,1.27
2019-03-04T20:23:09.436Z,7.90
2019-03-04T20:25:38.439Z,5.97
2019-03-04T20:28:07.456Z,4.17
2019-03-04T20:30:36.616Z,6.23
2019-03-04T20:33:05.505Z,9.47
2019-03-04T20:35:34.447Z,8.97
2019-03-04T20:38:03.389Z,18.10
2019-03-04T20:40:32.383Z,1.93
2019-03-04T20:43:01.367Z,6.23
2019-03-04T20:45:30.295Z,8.90
2019-03-04T20:47:59.197Z,5.50
2019-03-04T20:50:28.168Z,10.77
2019-03-04T20:52:57.094Z,9.73
2019-03-04T20:55:26.216Z,4.77
2019-03-04T20:57:55.212Z,5.13
2019-03-04T21:00:31.237Z,5.03
2019-03-04T21:03:00.185Z,9.03
2019-03-04T21:05:29.327Z,6.93
2019-03-04T21:07:58.592Z,4.83
2019-03-04T21:10:27.744Z,5.37
2019-03-04T21:12:58.466Z,5.13
2019-03-04T21:15:27.373Z,4.60
2019-03-04T21:17:56.213Z,9.87
2019-03-04T21:20:24.957Z,5.43
2019-03-04T21:22:54.503Z,2.73
2019-03-04T21:25:42.523Z,5.33
2019-03-04T21:28:13.517Z,4.33
2019-03-04T21:31:13.773Z,4.77
2019-03-04T21:33:54.004Z,4.40
2019-03-04T21:36:40.683Z,6.43
2019-03-04T21:39:09.785Z,8.73
2019-03-04T21:41:41.348Z,9.83
2019-03-04T21:44:32.056Z,7.40
2019-03-04T21:47:02.983Z,9.30
2019-03-04T21:49:33.010Z,8.53
2019-03-04T21:52:19.829Z,6.10
2019-03-04T21:54:40.857Z,8.43
2019-03-04T21:57:15.227Z,5.17
2019-03-04T21:59:44.091Z,6.67
2019-03-04T22:02:15.192Z,5.27
2019-03-04T22:04:43.976Z,8.50
2019-03-04T22:07:14.177Z,3.73
2019-03-04T22:09:43.171Z,13.50
2019-03-04T22:12:12.506Z,10.13
2019-03-04T22:14:41.301Z,5.47
2019-03-04T22:17:10.163Z,14.03
2019-03-04T22:19:38.988Z,6.20
2019-03-04T22:22:07.800Z,8.40
2019-03-04T22:24:36.590Z,9.53
2019-03-04T22:27:05.409Z,4.87
2019-03-04T22:29:34.161Z,4.17
2019-03-04T22:32:02.996Z,15.27
2019-03-04T22:34:33.397Z,4.20
2019-03-04T22:37:02.176Z,5.00
2019-03-04T22:39:30.972Z,6.77
2019-03-04T22:41:59.779Z,10.13
2019-03-04T22:44:28.572Z,5.73
2019-03-04T22:46:57.308Z,6.23
2019-03-04T22:49:26.031Z,5.83
2019-03-04T22:51:54.848Z,6.47
2019-03-04T22:54:23.582Z,4.50
2019-03-04T22:56:52.410Z,7.67
2019-03-04T22:59:21.211Z,7.20
2019-03-04T23:02:05.193Z,8.23
2019-03-04T23:04:39.524Z,7.20
2019-03-04T23:07:09.758Z,9.70
2019-03-04T23:09:46.529Z,12.23
2019-03-04T23:12:20.152Z,7.93
2019-03-04T23:14:49.362Z,1.83
2019-03-04T23:17:18.188Z,17.07
2019-03-04T23:19:46.974Z,8.63
2019-03-04T23:22:15.757Z,7.73
2019-03-04T23:24:44.511Z,6.10
2019-03-04T23:27:13.334Z,6.20
2019-03-04T23:29:42.104Z,5.67
2019-03-04T23:32:10.861Z,9.17
2019-03-04T23:34:39.575Z,9.97
2019-03-04T23:37:08.925Z,12.57
2019-03-04T23:39:37.694Z,7.57
2019-03-04T23:42:06.472Z,8.67
2019-03-04T23:44:35.384Z,7.80
2019-03-04T23:47:04.097Z,4.23
2019-03-04T23:49:32.896Z,5.33
2019-03-04T23:52:01.620Z,8.13
2019-03-04T23:54:30.396Z,8.23
2019-03-04T23:56:59.136Z,9.23
2019-03-04T23:59:27.972Z,7.80
